createdAt,value
2018-08-20T00:01:30.835Z,54.08
2018-08-20T00:04:05.564Z,53.97
2018-08-20T00:06:46.103Z,53.60
2018-08-20T00:09:14.812Z,53.67
2018-08-20T00:11:43.481Z,54.38
2018-08-20T00:14:12.061Z,54.24
2018-08-20T00:16:40.643Z,54.63
2018-08-20T00:19:13.505Z,54.56
2018-08-20T00:21:43.533Z,55.03
2018-08-20T00:24:12.192Z,54.56
2018-08-20T00:26:40.795Z,54.68
2018-08-20T00:29:09.868Z,54.46
2018-08-20T00:31:38.496Z,54.71
2018-08-20T00:34:07.158Z,54.19
2018-08-20T00:36:35.700Z,54.50
2018-08-20T00:39:06.069Z,54.39
2018-08-20T00:41:34.693Z,54.46
2018-08-20T00:44:04.841Z,54.44
2018-08-20T00:46:33.424Z,54.27
2018-08-20T00:49:01.987Z,54.74
2018-08-20T00:51:30.955Z,54.34
2018-08-20T00:53:59.523Z,54.90
2018-08-20T00:56:28.203Z,54.22
2018-08-20T00:58:56.743Z,54.00
2018-08-20T01:01:25.306Z,54.27
2018-08-20T01:04:00.314Z,54.71
2018-08-20T01:06:29.180Z,54.17
2018-08-20T01:08:57.792Z,54.79
2018-08-20T01:11:26.365Z,54.93
2018-08-20T01:13:54.935Z,54.81
2018-08-20T01:16:23.508Z,55.11
2018-08-20T01:18:52.296Z,55.25
2018-08-20T01:21:20.920Z,55.48
2018-08-20T01:23:49.455Z,54.97
2018-08-20T01:26:18.048Z,55.01
2018-08-20T01:28:46.596Z,55.72
2018-08-20T01:31:15.186Z,55.04
2018-08-20T01:33:43.810Z,54.95
2018-08-20T01:36:14.466Z,54.64
2018-08-20T01:38:43.910Z,54.41
2018-08-20T01:41:12.538Z,55.04
2018-08-20T01:43:41.188Z,55.42
2018-08-20T01:46:09.877Z,55.03
2018-08-20T01:48:38.436Z,55.26
2018-08-20T01:51:07.041Z,55.04
2018-08-20T01:53:35.607Z,55.23
2018-08-20T01:56:04.163Z,55.28
2018-08-20T01:58:32.751Z,55.45
2018-08-20T02:03:51.804Z,55.20
2018-08-20T02:06:21.902Z,55.03
2018-08-20T02:08:50.488Z,55.33
2018-08-20T02:11:19.202Z,55.30
2018-08-20T02:13:47.807Z,55.67
2018-08-20T02:16:17.007Z,55.99
2018-08-20T02:18:45.601Z,56.03
2018-08-20T02:21:14.619Z,55.59
2018-08-20T02:23:43.224Z,55.99
2018-08-20T02:26:11.803Z,55.84
2018-08-20T02:28:40.375Z,56.44
2018-08-20T02:31:08.933Z,56.79
2018-08-20T02:33:37.556Z,56.30
2018-08-20T02:36:06.146Z,56.29
2018-08-20T02:38:34.711Z,56.05
2018-08-20T02:41:05.741Z,55.92
2018-08-20T02:43:34.324Z,55.68
2018-08-20T02:46:02.992Z,56.10
2018-08-20T02:48:31.628Z,56.86
2018-08-20T02:51:00.181Z,57.10
2018-08-20T02:53:28.764Z,57.15
2018-08-20T02:55:57.371Z,57.21
2018-08-20T02:58:25.920Z,57.10
2018-08-20T03:00:54.643Z,56.19
2018-08-20T03:03:23.238Z,56.56
2018-08-20T03:05:51.795Z,56.88
2018-08-20T03:08:20.402Z,56.25
2018-08-20T03:10:49.531Z,56.20
2018-08-20T03:13:18.948Z,55.89
2018-08-20T03:15:47.744Z,56.42
2018-08-20T03:18:16.313Z,55.92
2018-08-20T03:20:44.847Z,55.55
2018-08-20T03:23:13.468Z,56.25
2018-08-20T03:25:42.011Z,56.51
2018-08-20T03:28:11.178Z,56.79
2018-08-20T03:30:39.845Z,57.15
2018-08-20T03:33:08.502Z,57.77
2018-08-20T03:35:37.067Z,58.32
2018-08-20T03:38:05.668Z,58.09
2018-08-20T03:40:34.224Z,58.51
2018-08-20T03:43:02.856Z,58.78
2018-08-20T03:45:31.454Z,58.89
2018-08-20T03:48:00.080Z,57.98
2018-08-20T03:50:28.808Z,58.77
2018-08-20T03:52:57.351Z,58.74
2018-08-20T03:55:25.873Z,59.24
2018-08-20T03:57:54.423Z,58.49
2018-08-20T04:00:25.087Z,59.90
2018-08-20T04:02:54.839Z,59.42
2018-08-20T04:05:23.404Z,59.45
2018-08-20T04:07:51.967Z,60.51
2018-08-20T04:10:20.532Z,60.56
2018-08-20T04:15:40.039Z,59.94
2018-08-20T04:18:08.852Z,60.93
2018-08-20T04:20:37.415Z,60.79
2018-08-20T04:23:06.179Z,61.42
2018-08-20T04:25:35.086Z,61.05
2018-08-20T04:28:03.716Z,61.14
2018-08-20T04:30:32.362Z,61.48
2018-08-20T04:33:00.912Z,60.70
2018-08-20T04:35:29.592Z,61.86
2018-08-20T04:37:58.140Z,62.18
2018-08-20T04:40:26.837Z,61.15
2018-08-20T04:45:45.899Z,60.46
2018-08-20T04:48:14.441Z,60.80
2018-08-20T04:50:43.053Z,60.75
2018-08-20T04:53:11.573Z,60.20
2018-08-20T04:55:40.149Z,59.83
2018-08-20T04:58:08.734Z,59.56
2018-08-20T05:00:37.341Z,59.00
2018-08-20T05:03:06.457Z,58.63
2018-08-20T05:05:35.063Z,58.51
2018-08-20T05:08:03.602Z,58.24
2018-08-20T05:10:32.155Z,58.34
2018-08-20T05:13:00.713Z,58.52
2018-08-20T05:15:29.308Z,58.78
2018-08-20T05:17:57.884Z,58.51
2018-08-20T05:20:26.415Z,57.97
2018-08-20T05:22:55.106Z,58.01
2018-08-20T05:25:23.662Z,57.80
2018-08-20T05:27:52.205Z,58.16
2018-08-20T05:30:20.793Z,57.38
2018-08-20T05:32:49.359Z,57.18
2018-08-20T05:35:18.236Z,56.87
2018-08-20T05:37:46.801Z,57.06
2018-08-20T05:40:15.345Z,56.47
2018-08-20T05:42:43.929Z,56.20
2018-08-20T05:45:12.941Z,57.22
2018-08-20T05:47:41.567Z,56.28
2018-08-20T05:50:10.966Z,56.63
2018-08-20T05:52:39.574Z,56.17
2018-08-20T05:55:08.196Z,56.44
2018-08-20T05:57:36.813Z,56.57
2018-08-20T06:00:09.774Z,56.31
2018-08-20T06:02:38.344Z,56.00
2018-08-20T06:05:06.960Z,55.58
2018-08-20T06:07:35.508Z,56.06
2018-08-20T06:10:04.148Z,56.41
2018-08-20T06:12:32.842Z,55.50
2018-08-20T06:15:01.504Z,54.99
2018-08-20T06:17:30.077Z,55.49
2018-08-20T06:19:58.662Z,55.03
2018-08-20T06:22:27.282Z,55.03
2018-08-20T06:24:55.903Z,54.89
2018-08-20T06:27:24.435Z,54.35
2018-08-20T06:29:53.001Z,54.11
2018-08-20T06:32:21.608Z,53.68
2018-08-20T06:34:51.078Z,53.56
2018-08-20T06:37:19.664Z,53.53
2018-08-20T06:39:48.289Z,52.96
2018-08-20T06:42:16.853Z,52.70
2018-08-20T06:44:45.451Z,52.02
2018-08-20T06:47:15.250Z,51.88
2018-08-20T06:49:43.836Z,51.30
2018-08-20T06:52:12.429Z,51.29
2018-08-20T06:54:41.008Z,50.63
2018-08-20T06:57:10.204Z,50.80
2018-08-20T06:59:38.747Z,50.06
2018-08-20T07:02:07.343Z,50.16
2018-08-20T07:04:35.939Z,49.59
2018-08-20T07:07:04.499Z,48.78
2018-08-20T07:09:33.140Z,49.07
2018-08-20T07:12:01.714Z,48.15
2018-08-20T07:14:30.427Z,48.09
2018-08-20T07:16:59.041Z,47.98
2018-08-20T07:22:30.878Z,47.25
2018-08-20T07:24:59.432Z,46.16
2018-08-20T07:27:27.955Z,45.88
2018-08-20T07:29:56.563Z,44.46
2018-08-20T07:32:25.275Z,44.73
2018-08-20T07:34:53.840Z,43.95
2018-08-20T07:37:22.398Z,43.29
2018-08-20T07:39:50.999Z,44.04
2018-08-20T07:42:19.580Z,43.95
2018-08-20T07:44:48.136Z,42.92
2018-08-20T07:47:16.709Z,43.35
2018-08-20T07:49:45.305Z,43.25
2018-08-20T07:52:14.766Z,43.39
2018-08-20T07:54:43.322Z,42.59
2018-08-20T07:57:13.163Z,42.16
2018-08-20T07:59:41.772Z,42.51
2018-08-20T08:02:10.366Z,41.15
2018-08-20T08:04:38.922Z,41.53
2018-08-20T08:07:07.507Z,40.86
2018-08-20T08:09:36.110Z,40.83
2018-08-20T08:12:04.717Z,40.65
2018-08-20T08:14:33.335Z,40.84
2018-08-20T08:17:01.938Z,40.58
2018-08-20T08:19:30.615Z,39.34
2018-08-20T08:21:59.265Z,39.62
2018-08-20T08:24:27.956Z,40.21
2018-08-20T08:26:56.785Z,39.47
2018-08-20T08:29:25.482Z,38.42
2018-08-20T08:31:54.271Z,39.35
2018-08-20T08:34:23.057Z,39.41
2018-08-20T08:36:51.640Z,38.71
2018-08-20T08:39:20.388Z,38.95
2018-08-20T08:41:49.296Z,39.12
2018-08-20T08:44:18.185Z,38.02
2018-08-20T08:46:46.812Z,38.58
2018-08-20T08:49:15.601Z,37.87
2018-08-20T08:51:44.217Z,38.05
2018-08-20T08:54:12.804Z,37.08
2018-08-20T08:56:41.400Z,38.31
2018-08-20T08:59:10.006Z,37.22
2018-08-20T09:01:38.596Z,37.65
2018-08-20T09:04:08.051Z,36.93
2018-08-20T09:06:36.622Z,36.31
2018-08-20T09:09:07.070Z,36.20
2018-08-20T09:11:36.085Z,36.27
2018-08-20T09:14:06.051Z,36.19
2018-08-20T09:16:34.689Z,35.69
2018-08-20T09:19:03.400Z,36.17
2018-08-20T09:21:31.965Z,34.88
2018-08-20T09:24:00.668Z,35.04
2018-08-20T09:26:29.427Z,35.23
2018-08-20T09:28:59.150Z,35.13
2018-08-20T09:31:27.872Z,34.36
2018-08-20T09:33:56.501Z,35.08
2018-08-20T09:36:25.145Z,33.79
2018-08-20T09:38:53.748Z,33.81
2018-08-20T09:41:22.416Z,33.78
2018-08-20T09:43:51.270Z,33.48
2018-08-20T09:46:19.727Z,32.66
2018-08-20T09:48:48.273Z,33.02
2018-08-20T09:51:17.005Z,33.30
2018-08-20T09:53:45.609Z,33.94
2018-08-20T09:56:14.218Z,33.39
2018-08-20T09:58:42.808Z,32.93
2018-08-20T10:01:11.391Z,31.60
2018-08-20T10:03:45.732Z,31.46
2018-08-20T10:06:15.440Z,31.52
2018-08-20T10:08:44.458Z,33.21
2018-08-20T10:11:13.954Z,32.35
2018-08-20T10:13:42.579Z,33.15
2018-08-20T10:16:11.324Z,32.08
2018-08-20T10:18:40.714Z,31.78
2018-08-20T10:21:09.348Z,31.29
2018-08-20T10:23:37.964Z,31.16
2018-08-20T10:26:07.295Z,29.82
2018-08-20T10:28:35.938Z,29.80
2018-08-20T10:31:04.589Z,31.54
2018-08-20T10:33:33.188Z,32.31
2018-08-20T10:36:03.251Z,33.06
2018-08-20T10:38:31.810Z,32.72
2018-08-20T10:41:00.364Z,33.08
2018-08-20T10:43:28.957Z,33.74
2018-08-20T10:46:02.659Z,34.68
2018-08-20T10:48:31.290Z,34.04
2018-08-20T10:50:59.903Z,33.80
2018-08-20T10:53:28.517Z,33.36
2018-08-20T10:55:57.156Z,31.43
2018-08-20T10:58:25.792Z,31.54
2018-08-20T11:00:54.343Z,31.77
2018-08-20T11:03:22.937Z,32.52
2018-08-20T11:05:51.595Z,32.46
2018-08-20T11:08:20.156Z,33.11
2018-08-20T11:10:48.794Z,33.09
2018-08-20T11:13:17.375Z,33.31
2018-08-20T11:15:45.977Z,33.76
2018-08-20T11:18:14.630Z,33.63
2018-08-20T11:20:43.174Z,34.96
2018-08-20T11:23:11.790Z,34.74
2018-08-20T11:25:40.401Z,34.02
2018-08-20T11:28:08.961Z,34.16
2018-08-20T11:30:37.524Z,34.97
2018-08-20T11:33:06.201Z,35.09
2018-08-20T11:35:34.811Z,35.56
2018-08-20T11:38:03.476Z,34.92
2018-08-20T11:40:32.270Z,35.83
2018-08-20T11:43:00.889Z,35.80
2018-08-20T11:45:29.478Z,35.46
2018-08-20T11:47:58.377Z,35.94
2018-08-20T11:50:27.335Z,34.85
2018-08-20T11:52:55.980Z,35.76
2018-08-20T11:55:24.668Z,35.54
2018-08-20T11:57:53.300Z,33.65
2018-08-20T12:00:21.883Z,33.74
2018-08-20T12:02:51.080Z,33.54
2018-08-20T12:05:19.696Z,32.46
2018-08-20T12:07:48.675Z,32.57
2018-08-20T12:10:18.111Z,32.62
2018-08-20T12:29:51.662Z,31.59
2018-08-20T12:32:20.200Z,32.88
2018-08-20T12:34:48.756Z,32.29
2018-08-20T12:37:17.326Z,32.66
2018-08-20T12:39:45.879Z,32.84
2018-08-20T12:42:14.553Z,33.62
2018-08-20T12:44:43.123Z,34.73
2018-08-20T12:47:12.069Z,34.41
2018-08-20T12:49:40.622Z,34.51
2018-08-20T12:52:09.509Z,34.38
2018-08-20T12:54:38.084Z,35.12
2018-08-20T12:57:06.699Z,33.89
2018-08-20T12:59:35.444Z,31.68
2018-08-20T13:02:04.047Z,32.16
2018-08-20T13:04:32.650Z,32.71
2018-08-20T13:07:01.295Z,31.88
2018-08-20T13:09:29.895Z,32.20
2018-08-20T13:11:58.505Z,32.03
2018-08-20T13:14:27.060Z,31.01
2018-08-20T13:16:55.648Z,31.54
2018-08-20T13:19:24.234Z,32.41
2018-08-20T13:21:53.039Z,31.53
2018-08-20T13:24:21.618Z,31.48
2018-08-20T13:26:50.229Z,31.83
2018-08-20T13:29:18.803Z,32.88
2018-08-20T13:31:47.378Z,33.02
2018-08-20T13:34:16.803Z,33.34
2018-08-20T13:36:45.369Z,34.08
2018-08-20T13:39:16.012Z,34.37
2018-08-20T13:41:44.564Z,33.18
2018-08-20T13:44:13.201Z,31.62
2018-08-20T13:46:41.774Z,32.17
2018-08-20T13:49:10.463Z,32.17
2018-08-20T13:51:39.116Z,30.98
2018-08-20T13:54:07.709Z,31.23
2018-08-20T13:56:36.352Z,30.72
2018-08-20T13:59:05.263Z,31.51
2018-08-20T14:01:33.847Z,31.18
2018-08-20T14:04:02.396Z,30.29
2018-08-20T14:06:30.950Z,31.86
2018-08-20T14:08:59.569Z,31.22
2018-08-20T14:11:28.161Z,31.43
2018-08-20T14:13:56.750Z,30.92
2018-08-20T14:16:25.351Z,31.01
2018-08-20T14:18:54.309Z,30.72
2018-08-20T14:21:23.024Z,30.41
2018-08-20T14:23:51.629Z,30.69
2018-08-20T14:26:20.189Z,31.25
2018-08-20T14:28:48.768Z,31.63
2018-08-20T14:31:17.372Z,32.77
2018-08-20T14:33:45.972Z,33.24
2018-08-20T14:36:14.683Z,33.84
2018-08-20T14:38:43.311Z,34.03
2018-08-20T14:41:12.183Z,33.86
2018-08-20T14:43:40.780Z,34.15
2018-08-20T14:46:14.580Z,33.84
2018-08-20T14:48:43.324Z,34.46
2018-08-20T14:51:12.131Z,33.88
2018-08-20T14:53:40.669Z,34.26
2018-08-20T14:56:09.240Z,34.44
2018-08-20T14:58:37.849Z,34.80
2018-08-20T15:01:06.696Z,35.05
2018-08-20T15:03:35.276Z,35.45
2018-08-20T15:06:03.800Z,34.45
2018-08-20T15:08:32.593Z,34.21
2018-08-20T15:11:01.180Z,34.80
2018-08-20T15:13:29.733Z,34.46
2018-08-20T15:15:58.343Z,33.88
2018-08-20T15:19:11.253Z,34.12
2018-08-20T15:21:39.815Z,33.87
2018-08-20T15:24:08.580Z,34.89
2018-08-20T15:26:37.281Z,34.60
2018-08-20T15:29:06.102Z,34.35
2018-08-20T15:31:34.656Z,33.63
2018-08-20T15:34:03.273Z,34.62
2018-08-20T15:36:31.865Z,34.83
2018-08-20T15:39:00.858Z,34.88
2018-08-20T15:41:29.501Z,35.17
2018-08-20T15:43:58.107Z,35.46
2018-08-20T15:46:26.700Z,34.70
2018-08-20T15:48:55.309Z,35.35
2018-08-20T15:51:24.733Z,34.22
2018-08-20T15:53:53.347Z,34.84
2018-08-20T15:56:21.974Z,34.94
2018-08-20T15:58:50.522Z,34.83
2018-08-20T16:01:19.086Z,34.68
2018-08-20T16:03:47.718Z,34.45
2018-08-20T16:06:16.272Z,33.27
2018-08-20T16:08:44.837Z,33.53
2018-08-20T16:11:13.662Z,33.34
2018-08-20T16:13:42.432Z,33.29
2018-08-20T16:16:11.565Z,33.04
2018-08-20T16:21:42.465Z,32.58
2018-08-20T16:24:11.241Z,31.99
2018-08-20T16:26:39.804Z,31.97
2018-08-20T16:29:08.410Z,33.07
2018-08-20T16:31:37.281Z,32.85
2018-08-20T16:34:05.960Z,33.19
2018-08-20T16:36:34.830Z,34.17
2018-08-20T16:39:04.805Z,34.17
2018-08-20T16:41:33.399Z,34.90
2018-08-20T16:44:02.008Z,35.08
2018-08-20T16:46:30.627Z,34.95
2018-08-20T16:48:59.382Z,35.08
2018-08-20T16:51:28.131Z,34.97
2018-08-20T16:53:56.809Z,36.56
2018-08-20T16:56:25.462Z,37.05
2018-08-20T16:58:54.199Z,36.45
2018-08-20T17:01:22.799Z,37.54
2018-08-20T17:03:51.384Z,37.92
2018-08-20T17:06:20.002Z,37.86
2018-08-20T17:08:48.588Z,36.36
2018-08-20T17:11:17.185Z,37.61
2018-08-20T17:13:45.859Z,37.47
2018-08-20T17:16:22.110Z,37.52
2018-08-20T17:18:50.705Z,37.73
2018-08-20T17:21:19.479Z,38.56
2018-08-20T17:23:47.992Z,38.57
2018-08-20T17:26:16.680Z,38.46
2018-08-20T17:28:45.233Z,38.66
2018-08-20T17:31:13.959Z,38.73
2018-08-20T17:33:42.489Z,39.43
2018-08-20T17:36:11.057Z,39.11
2018-08-20T17:38:39.743Z,39.07
2018-08-20T17:41:09.411Z,39.13
2018-08-20T17:43:38.026Z,39.97
2018-08-20T17:46:06.676Z,40.48
2018-08-20T17:48:35.225Z,40.00
2018-08-20T17:51:03.915Z,40.39
2018-08-20T17:53:43.699Z,40.42
2018-08-20T17:56:12.300Z,41.40
2018-08-20T17:58:40.861Z,40.38
2018-08-20T18:01:09.495Z,40.97
2018-08-20T18:03:38.672Z,40.80
2018-08-20T18:06:09.361Z,41.37
2018-08-20T18:08:38.226Z,42.46
2018-08-20T18:11:08.053Z,42.69
2018-08-20T18:13:45.431Z,43.05
2018-08-20T18:16:15.379Z,44.04
2018-08-20T18:18:52.567Z,44.67
2018-08-20T18:21:21.168Z,44.46
2018-08-20T18:23:49.845Z,45.07
2018-08-20T18:26:18.439Z,45.34
2018-08-20T18:28:51.919Z,46.49
2018-08-20T18:31:23.200Z,46.90
2018-08-20T18:33:51.828Z,46.90
2018-08-20T18:36:21.662Z,47.98
2018-08-20T18:38:53.927Z,47.77
2018-08-20T18:42:00.221Z,48.87
2018-08-20T18:44:28.843Z,48.27
2018-08-20T18:46:57.420Z,48.65
2018-08-20T18:49:26.063Z,48.61
2018-08-20T18:52:17.330Z,48.83
2018-08-20T18:54:50.152Z,48.65
2018-08-20T18:57:21.361Z,48.78
2018-08-20T18:59:50.098Z,49.12
2018-08-20T19:02:38.678Z,48.72
2018-08-20T19:05:10.261Z,48.78
2018-08-20T19:07:39.106Z,49.21
2018-08-20T19:10:16.503Z,48.77
2018-08-20T19:12:45.403Z,48.42
2018-08-20T19:15:28.081Z,48.79
2018-08-20T19:17:56.683Z,48.73
2018-08-20T19:20:25.316Z,48.86
2018-08-20T19:22:53.876Z,49.09
2018-08-20T19:25:22.581Z,49.03
2018-08-20T19:27:51.153Z,49.29
2018-08-20T19:30:22.975Z,49.64
2018-08-20T19:32:51.528Z,49.08
2018-08-20T19:35:20.129Z,49.65
2018-08-20T19:37:49.186Z,49.47
2018-08-20T19:40:17.932Z,49.68
2018-08-20T19:42:46.623Z,49.69
2018-08-20T19:45:15.232Z,49.45
2018-08-20T19:47:44.052Z,49.80
2018-08-20T19:50:13.244Z,50.53
2018-08-20T19:52:42.216Z,50.54
2018-08-20T19:55:13.008Z,50.73
2018-08-20T19:57:41.713Z,51.05
2018-08-20T20:00:12.549Z,51.62
2018-08-20T20:02:42.884Z,51.58
2018-08-20T20:05:14.963Z,51.88
2018-08-20T20:07:56.416Z,51.63
2018-08-20T20:10:25.026Z,51.95
2018-08-20T20:12:55.643Z,52.04
2018-08-20T20:15:25.061Z,52.25
2018-08-20T20:17:54.852Z,51.43
2018-08-20T20:20:23.470Z,51.76
2018-08-20T20:22:52.075Z,51.62
2018-08-20T20:25:21.122Z,52.06
2018-08-20T20:27:49.685Z,52.25
2018-08-20T20:30:18.277Z,53.43
2018-08-20T20:32:46.837Z,53.83
2018-08-20T20:35:15.574Z,53.26
2018-08-20T20:37:44.168Z,53.97
2018-08-20T20:40:12.766Z,53.86
2018-08-20T20:42:41.347Z,54.09
2018-08-20T20:45:10.051Z,54.64
2018-08-20T20:47:38.716Z,54.17
2018-08-20T20:50:07.472Z,53.25
2018-08-20T20:52:36.109Z,53.15
2018-08-20T20:55:04.952Z,53.09
2018-08-20T20:57:33.525Z,52.82
2018-08-20T21:00:02.150Z,52.68
2018-08-20T21:02:30.867Z,53.01
2018-08-20T21:05:04.714Z,53.33
2018-08-20T21:07:33.936Z,53.46
2018-08-20T21:10:02.498Z,53.79
2018-08-20T21:12:31.844Z,53.13
2018-08-20T21:15:00.436Z,53.46
2018-08-20T21:17:30.084Z,52.95
2018-08-20T21:19:58.685Z,52.71
2018-08-20T21:22:27.287Z,52.96
2018-08-20T21:24:56.005Z,53.73
2018-08-20T21:27:26.779Z,53.71
2018-08-20T21:29:58.769Z,53.25
2018-08-20T21:32:27.396Z,53.83
2018-08-20T21:34:56.014Z,53.77
2018-08-20T21:37:24.677Z,53.91
2018-08-20T21:39:54.025Z,54.37
2018-08-20T21:42:32.420Z,54.81
2018-08-20T21:45:00.971Z,54.77
2018-08-20T21:47:31.070Z,55.30
2018-08-20T21:49:59.759Z,54.91
2018-08-20T21:52:28.453Z,55.79
2018-08-20T21:54:57.931Z,55.89
2018-08-20T21:57:26.524Z,55.94
2018-08-20T22:00:11.790Z,55.69
2018-08-20T22:02:40.491Z,55.69
2018-08-20T22:05:09.127Z,56.18
2018-08-20T22:07:37.900Z,56.05
2018-08-20T22:10:06.515Z,55.60
2018-08-20T22:12:35.123Z,55.39
2018-08-20T22:15:04.103Z,55.52
2018-08-20T22:20:47.481Z,55.80
2018-08-20T22:23:25.273Z,55.80
2018-08-20T22:25:47.768Z,55.86
2018-08-20T22:28:16.323Z,56.06
2018-08-20T22:30:49.300Z,56.28
2018-08-20T22:33:18.561Z,56.77
2018-08-20T22:35:47.231Z,56.73
2018-08-20T22:38:15.874Z,56.72
2018-08-20T22:40:44.672Z,56.00
2018-08-20T22:43:13.330Z,55.99
2018-08-20T22:45:42.013Z,56.44
2018-08-20T22:48:10.591Z,56.01
2018-08-20T22:50:41.246Z,55.46
2018-08-20T22:53:09.942Z,56.37
2018-08-20T22:55:44.313Z,56.74
2018-08-20T22:58:12.922Z,56.13
2018-08-20T23:00:41.656Z,56.50
2018-08-20T23:03:10.237Z,56.30
2018-08-20T23:05:38.835Z,55.74
2018-08-20T23:08:12.655Z,55.42
2018-08-20T23:10:43.033Z,55.38
2018-08-20T23:13:11.661Z,55.14
2018-08-20T23:15:40.369Z,54.74
2018-08-20T23:18:09.031Z,54.13
2018-08-20T23:20:37.739Z,54.20
2018-08-20T23:23:06.491Z,53.89
2018-08-20T23:25:35.074Z,53.28
2018-08-20T23:28:03.673Z,53.56
2018-08-20T23:30:32.213Z,54.13
2018-08-20T23:33:00.759Z,53.10
2018-08-20T23:35:29.394Z,52.53
2018-08-20T23:37:57.979Z,52.60
2018-08-20T23:40:26.564Z,52.10
2018-08-20T23:42:55.256Z,52.09
2018-08-20T23:45:23.891Z,52.42
2018-08-20T23:47:52.454Z,51.64
2018-08-20T23:50:21.061Z,51.59
2018-08-20T23:52:49.611Z,51.55
2018-08-20T23:55:18.323Z,51.85
2018-08-20T23:57:46.877Z,51.50
